Terminal Aerodrome Forecast
Issued by NWS

Home | Current Version | Previous Version | Text Only | Print | Product List | Glossary On
Versions: 1 2 3 4 5 6 7 8 9 10 11 12 13 14 15
795
FTUS41 KBTV 210237 AAA
TAFRUT
TAF AMD
KRUT 210237Z 2103/2124 23008KT P6SM VCSH SCT020 OVC035
      TEMPO 2103/2106 5SM -SN OVC020
     FM210600 23008KT P6SM OVC030
     FM210800 22005KT P6SM SCT030
     FM211500 22010G20KT P6SM SCT200=

USA.gov is the U.S. government's official web portal to all federal, state and local government web resources and services.